sensor_id;sensor_type;location;lat;lon;timestamp;P1;durP1;ratioP1;P2;durP2;ratioP2
489;SDS011;231;48.120;11.576;2023-08-20T00:01:27;9.50;;;9.00;;
489;SDS011;231;48.120;11.576;2023-08-20T00:03:55;10.70;;;10.13;;
489;SDS011;231;48.120;11.576;2023-08-20T00:06:26;8.80;;;8.30;;
489;SDS011;231;48.120;11.576;2023-08-20T00:08:58;14.70;;;9.93;;
489;SDS011;231;48.120;11.576;2023-08-20T00:11:30;9.10;;;8.60;;
489;SDS011;231;48.120;11.576;2023-08-20T00:13:57;8.67;;;8.17;;
489;SDS011;231;48.120;11.576;2023-08-20T00:16:25;10.10;;;9.23;;
489;SDS011;231;48.120;11.576;2023-08-20T00:18:53;9.87;;;9.00;;
489;SDS011;231;48.120;11.576;2023-08-20T00:21:23;8.10;;;7.70;;
489;SDS011;231;48.120;11.576;2023-08-20T00:23:52;8.93;;;7.20;;
489;SDS011;231;48.120;11.576;2023-08-20T00:26:19;7.60;;;7.20;;
489;SDS011;231;48.120;11.576;2023-08-20T00:28:48;7.70;;;7.27;;
489;SDS011;231;48.120;11.576;2023-08-20T00:31:17;9.43;;;7.73;;
489;SDS011;231;48.120;11.576;2023-08-20T00:33:44;7.57;;;7.17;;
489;SDS011;231;48.120;11.576;2023-08-20T00:36:11;8.53;;;8.03;;
489;SDS011;231;48.120;11.576;2023-08-20T00:38:38;9.03;;;7.33;;
489;SDS011;231;48.120;11.576;2023-08-20T00:41:05;8.63;;;8.17;;
489;SDS011;231;48.120;11.576;2023-08-20T00:43:31;8.17;;;7.77;;
489;SDS011;231;48.120;11.576;2023-08-20T00:46:00;6.70;;;6.30;;
489;SDS011;231;48.120;11.576;2023-08-20T00:48:27;11.63;;;9.00;;
489;SDS011;231;48.120;11.576;2023-08-20T00:50:53;9.37;;;8.70;;
489;SDS011;231;48.120;11.576;2023-08-20T00:53:20;9.10;;;8.43;;
489;SDS011;231;48.120;11.576;2023-08-20T00:55:47;11.07;;;8.80;;
489;SDS011;231;48.120;11.576;2023-08-20T00:58:14;7.40;;;6.27;;
489;SDS011;231;48.120;11.576;2023-08-20T01:00:41;7.67;;;7.10;;
489;SDS011;231;48.120;11.576;2023-08-20T01:03:10;7.87;;;7.10;;
489;SDS011;231;48.120;11.576;2023-08-20T01:05:44;8.70;;;7.67;;
489;SDS011;231;48.120;11.576;2023-08-20T01:08:19;7.53;;;7.10;;
489;SDS011;231;48.120;11.576;2023-08-20T01:10:56;7.33;;;5.57;;
489;SDS011;231;48.120;11.576;2023-08-20T01:13:26;7.43;;;7.03;;
489;SDS011;231;48.120;11.576;2023-08-20T01:15:53;8.40;;;7.57;;
489;SDS011;231;48.120;11.576;2023-08-20T01:18:22;7.77;;;7.37;;
489;SDS011;231;48.120;11.576;2023-08-20T01:20:51;6.80;;;6.40;;
489;SDS011;231;48.120;11.576;2023-08-20T01:26:56;8.20;;;7.80;;
489;SDS011;231;48.120;11.576;2023-08-20T01:32:31;8.13;;;7.17;;
489;SDS011;231;48.120;11.576;2023-08-20T01:35:03;7.77;;;7.37;;
489;SDS011;231;48.120;11.576;2023-08-20T01:37:37;7.03;;;6.63;;
489;SDS011;231;48.120;11.576;2023-08-20T01:40:06;7.90;;;7.50;;
489;SDS011;231;48.120;11.576;2023-08-20T01:42:43;8.53;;;7.37;;
489;SDS011;231;48.120;11.576;2023-08-20T01:45:13;7.37;;;6.73;;
489;SDS011;231;48.120;11.576;2023-08-20T01:47:44;7.30;;;6.90;;
489;SDS011;231;48.120;11.576;2023-08-20T01:50:15;7.33;;;6.87;;
489;SDS011;231;48.120;11.576;2023-08-20T01:52:51;8.80;;;6.70;;
489;SDS011;231;48.120;11.576;2023-08-20T01:55:19;7.50;;;7.10;;
489;SDS011;231;48.120;11.576;2023-08-20T01:57:46;7.90;;;7.50;;
489;SDS011;231;48.120;11.576;2023-08-20T02:00:15;7.50;;;7.10;;
489;SDS011;231;48.120;11.576;2023-08-20T02:02:43;7.67;;;7.10;;
489;SDS011;231;48.120;11.576;2023-08-20T02:05:10;8.80;;;6.90;;
489;SDS011;231;48.120;11.576;2023-08-20T02:07:38;7.40;;;7.00;;
489;SDS011;231;48.120;11.576;2023-08-20T02:10:06;7.50;;;7.10;;
489;SDS011;231;48.120;11.576;2023-08-20T02:12:36;7.00;;;6.60;;
489;SDS011;231;48.120;11.576;2023-08-20T02:15:04;7.17;;;6.77;;
489;SDS011;231;48.120;11.576;2023-08-20T02:17:34;7.80;;;7.40;;
489;SDS011;231;48.120;11.576;2023-08-20T02:20:31;7.30;;;6.40;;
489;SDS011;231;48.120;11.576;2023-08-20T02:22:58;7.53;;;7.13;;
489;SDS011;231;48.120;11.576;2023-08-20T02:25:24;7.13;;;6.80;;
489;SDS011;231;48.120;11.576;2023-08-20T02:27:52;7.60;;;6.40;;
489;SDS011;231;48.120;11.576;2023-08-20T02:30:37;8.20;;;7.17;;
489;SDS011;231;48.120;11.576;2023-08-20T02:33:15;8.07;;;7.37;;
489;SDS011;231;48.120;11.576;2023-08-20T02:35:42;7.17;;;6.77;;
489;SDS011;231;48.120;11.576;2023-08-20T02:38:09;8.83;;;8.23;;
489;SDS011;231;48.120;11.576;2023-08-20T02:40:40;8.00;;;7.60;;
489;SDS011;231;48.120;11.576;2023-08-20T02:43:07;6.83;;;6.43;;
489;SDS011;231;48.120;11.576;2023-08-20T02:45:39;8.07;;;7.33;;
489;SDS011;231;48.120;11.576;2023-08-20T02:48:07;8.87;;;7.60;;
489;SDS011;231;48.120;11.576;2023-08-20T02:50:35;8.20;;;7.77;;
489;SDS011;231;48.120;11.576;2023-08-20T02:53:02;7.60;;;7.20;;
489;SDS011;231;48.120;11.576;2023-08-20T02:55:29;7.37;;;6.97;;
489;SDS011;231;48.120;11.576;2023-08-20T02:57:56;8.43;;;7.73;;
489;SDS011;231;48.120;11.576;2023-08-20T03:00:23;14.53;;;9.47;;
489;SDS011;231;48.120;11.576;2023-08-20T03:02:50;9.40;;;7.13;;
489;SDS011;231;48.120;11.576;2023-08-20T03:05:17;9.60;;;8.30;;
489;SDS011;231;48.120;11.576;2023-08-20T03:07:45;7.67;;;7.30;;
489;SDS011;231;48.120;11.576;2023-08-20T03:10:12;7.03;;;6.53;;
489;SDS011;231;48.120;11.576;2023-08-20T03:12:39;7.90;;;7.50;;
489;SDS011;231;48.120;11.576;2023-08-20T03:15:06;7.37;;;6.97;;
489;SDS011;231;48.120;11.576;2023-08-20T03:17:34;7.87;;;7.40;;
489;SDS011;231;48.120;11.576;2023-08-20T03:20:00;7.50;;;7.10;;
489;SDS011;231;48.120;11.576;2023-08-20T03:22:29;7.17;;;6.77;;
489;SDS011;231;48.120;11.576;2023-08-20T03:24:57;6.40;;;6.03;;
489;SDS011;231;48.120;11.576;2023-08-20T03:27:24;7.60;;;6.90;;
489;SDS011;231;48.120;11.576;2023-08-20T03:29:51;7.57;;;7.17;;
489;SDS011;231;48.120;11.576;2023-08-20T03:32:18;9.70;;;7.93;;
489;SDS011;231;48.120;11.576;2023-08-20T03:34:45;8.53;;;8.03;;
489;SDS011;231;48.120;11.576;2023-08-20T03:37:12;7.97;;;7.57;;
489;SDS011;231;48.120;11.576;2023-08-20T03:39:39;7.67;;;7.27;;
489;SDS011;231;48.120;11.576;2023-08-20T03:42:07;9.90;;;8.33;;
489;SDS011;231;48.120;11.576;2023-08-20T03:44:34;9.23;;;8.73;;
489;SDS011;231;48.120;11.576;2023-08-20T03:47:00;7.93;;;7.53;;
489;SDS011;231;48.120;11.576;2023-08-20T03:49:27;8.97;;;8.47;;
489;SDS011;231;48.120;11.576;2023-08-20T03:51:54;8.30;;;7.90;;
489;SDS011;231;48.120;11.576;2023-08-20T03:54:21;7.27;;;6.87;;
489;SDS011;231;48.120;11.576;2023-08-20T03:56:48;6.67;;;6.23;;
489;SDS011;231;48.120;11.576;2023-08-20T03:59:16;9.30;;;8.80;;
489;SDS011;231;48.120;11.576;2023-08-20T04:01:43;8.90;;;7.73;;
489;SDS011;231;48.120;11.576;2023-08-20T04:04:09;7.93;;;7.50;;
489;SDS011;231;48.120;11.576;2023-08-20T04:06:36;7.20;;;6.80;;
489;SDS011;231;48.120;11.576;2023-08-20T04:09:03;9.20;;;8.70;;
489;SDS011;231;48.120;11.576;2023-08-20T04:11:30;6.97;;;6.57;;
489;SDS011;231;48.120;11.576;2023-08-20T04:13:57;7.57;;;7.17;;
489;SDS011;231;48.120;11.576;2023-08-20T04:16:25;8.00;;;7.60;;
489;SDS011;231;48.120;11.576;2023-08-20T04:18:52;7.27;;;6.87;;
489;SDS011;231;48.120;11.576;2023-08-20T04:21:19;7.20;;;6.80;;
489;SDS011;231;48.120;11.576;2023-08-20T04:23:46;10.67;;;7.57;;
489;SDS011;231;48.120;11.576;2023-08-20T04:26:13;9.13;;;8.07;;
489;SDS011;231;48.120;11.576;2023-08-20T04:28:40;9.33;;;8.00;;
489;SDS011;231;48.120;11.576;2023-08-20T04:31:06;9.20;;;7.97;;
489;SDS011;231;48.120;11.576;2023-08-20T04:33:34;10.80;;;8.00;;
489;SDS011;231;48.120;11.576;2023-08-20T04:36:01;8.90;;;8.30;;
489;SDS011;231;48.120;11.576;2023-08-20T04:38:28;7.63;;;7.23;;
489;SDS011;231;48.120;11.576;2023-08-20T04:40:55;8.43;;;7.17;;
489;SDS011;231;48.120;11.576;2023-08-20T04:43:22;12.33;;;8.27;;
489;SDS011;231;48.120;11.576;2023-08-20T04:45:49;8.90;;;7.77;;
489;SDS011;231;48.120;11.576;2023-08-20T04:48:16;8.13;;;7.73;;
489;SDS011;231;48.120;11.576;2023-08-20T04:50:44;8.37;;;7.93;;
489;SDS011;231;48.120;11.576;2023-08-20T04:53:11;8.43;;;7.83;;
489;SDS011;231;48.120;11.576;2023-08-20T04:55:37;7.33;;;6.93;;
489;SDS011;231;48.120;11.576;2023-08-20T04:58:04;7.63;;;7.23;;
489;SDS011;231;48.120;11.576;2023-08-20T05:00:31;6.57;;;6.20;;
489;SDS011;231;48.120;11.576;2023-08-20T05:02:58;10.53;;;8.10;;
489;SDS011;231;48.120;11.576;2023-08-20T05:05:24;11.03;;;8.30;;
489;SDS011;231;48.120;11.576;2023-08-20T05:07:53;8.17;;;7.70;;
489;SDS011;231;48.120;11.576;2023-08-20T05:10:19;8.27;;;7.70;;
489;SDS011;231;48.120;11.576;2023-08-20T05:12:46;8.97;;;8.47;;
489;SDS011;231;48.120;11.576;2023-08-20T05:15:13;10.13;;;8.07;;
489;SDS011;231;48.120;11.576;2023-08-20T05:17:39;7.37;;;6.97;;
489;SDS011;231;48.120;11.576;2023-08-20T05:20:06;8.43;;;7.47;;
489;SDS011;231;48.120;11.576;2023-08-20T05:22:34;9.80;;;7.53;;
489;SDS011;231;48.120;11.576;2023-08-20T05:25:03;8.83;;;8.33;;
489;SDS011;231;48.120;11.576;2023-08-20T05:27:30;8.63;;;8.07;;
489;SDS011;231;48.120;11.576;2023-08-20T05:29:57;7.83;;;7.43;;
489;SDS011;231;48.120;11.576;2023-08-20T05:32:24;8.97;;;8.47;;
489;SDS011;231;48.120;11.576;2023-08-20T05:34:50;9.43;;;8.43;;
489;SDS011;231;48.120;11.576;2023-08-20T05:37:17;8.83;;;8.33;;
489;SDS011;231;48.120;11.576;2023-08-20T05:39:44;9.90;;;8.00;;
489;SDS011;231;48.120;11.576;2023-08-20T05:42:12;8.07;;;7.67;;
489;SDS011;231;48.120;11.576;2023-08-20T05:44:39;9.70;;;8.30;;
489;SDS011;231;48.120;11.576;2023-08-20T05:47:07;7.20;;;6.80;;
489;SDS011;231;48.120;11.576;2023-08-20T05:49:34;7.73;;;7.33;;
489;SDS011;231;48.120;11.576;2023-08-20T05:52:01;8.00;;;7.37;;
489;SDS011;231;48.120;11.576;2023-08-20T05:54:28;7.80;;;7.40;;
489;SDS011;231;48.120;11.576;2023-08-20T05:56:56;7.30;;;6.90;;
489;SDS011;231;48.120;11.576;2023-08-20T05:59:25;8.77;;;8.27;;
489;SDS011;231;48.120;11.576;2023-08-20T06:01:52;7.70;;;7.30;;
489;SDS011;231;48.120;11.576;2023-08-20T06:04:19;7.73;;;7.33;;
489;SDS011;231;48.120;11.576;2023-08-20T06:06:46;8.20;;;7.77;;
489;SDS011;231;48.120;11.576;2023-08-20T06:09:13;7.27;;;6.87;;
489;SDS011;231;48.120;11.576;2023-08-20T06:11:39;9.77;;;6.60;;
489;SDS011;231;48.120;11.576;2023-08-20T06:14:06;6.80;;;6.40;;
489;SDS011;231;48.120;11.576;2023-08-20T06:16:34;6.90;;;6.50;;
489;SDS011;231;48.120;11.576;2023-08-20T06:19:01;7.40;;;7.00;;
489;SDS011;231;48.120;11.576;2023-08-20T06:21:28;6.03;;;5.73;;
489;SDS011;231;48.120;11.576;2023-08-20T06:23:55;7.53;;;6.03;;
489;SDS011;231;48.120;11.576;2023-08-20T06:26:22;8.37;;;6.07;;
489;SDS011;231;48.120;11.576;2023-08-20T06:28:49;9.57;;;5.87;;
489;SDS011;231;48.120;11.576;2023-08-20T06:31:16;7.00;;;6.60;;
489;SDS011;231;48.120;11.576;2023-08-20T06:33:44;6.50;;;5.40;;
489;SDS011;231;48.120;11.576;2023-08-20T06:36:11;7.10;;;6.70;;
489;SDS011;231;48.120;11.576;2023-08-20T06:38:38;5.73;;;5.43;;
489;SDS011;231;48.120;11.576;2023-08-20T06:41:05;6.93;;;5.20;;
489;SDS011;231;48.120;11.576;2023-08-20T06:43:31;8.13;;;6.07;;
489;SDS011;231;48.120;11.576;2023-08-20T06:45:58;6.57;;;5.17;;
489;SDS011;231;48.120;11.576;2023-08-20T06:48:25;6.30;;;5.20;;
489;SDS011;231;48.120;11.576;2023-08-20T06:50:53;5.53;;;5.27;;
489;SDS011;231;48.120;11.576;2023-08-20T06:53:20;6.67;;;6.10;;
489;SDS011;231;48.120;11.576;2023-08-20T06:55:47;6.00;;;4.87;;
489;SDS011;231;48.120;11.576;2023-08-20T06:58:14;6.07;;;4.90;;
489;SDS011;231;48.120;11.576;2023-08-20T07:00:41;7.13;;;5.43;;
489;SDS011;231;48.120;11.576;2023-08-20T07:03:08;5.93;;;5.63;;
489;SDS011;231;48.120;11.576;2023-08-20T07:05:35;6.23;;;5.90;;
489;SDS011;231;48.120;11.576;2023-08-20T07:08:03;6.07;;;5.00;;
489;SDS011;231;48.120;11.576;2023-08-20T07:10:30;5.37;;;5.07;;
489;SDS011;231;48.120;11.576;2023-08-20T07:12:57;5.67;;;4.40;;
489;SDS011;231;48.120;11.576;2023-08-20T07:15:24;5.20;;;4.90;;
489;SDS011;231;48.120;11.576;2023-08-20T07:17:50;5.43;;;4.83;;
489;SDS011;231;48.120;11.576;2023-08-20T07:20:17;5.37;;;5.07;;
489;SDS011;231;48.120;11.576;2023-08-20T07:22:44;5.13;;;4.83;;
489;SDS011;231;48.120;11.576;2023-08-20T07:25:12;5.70;;;5.40;;
489;SDS011;231;48.120;11.576;2023-08-20T07:27:39;5.03;;;4.73;;
489;SDS011;231;48.120;11.576;2023-08-20T07:30:08;4.63;;;4.33;;
489;SDS011;231;48.120;11.576;2023-08-20T07:32:35;6.03;;;5.00;;
489;SDS011;231;48.120;11.576;2023-08-20T07:35:02;10.27;;;5.87;;
489;SDS011;231;48.120;11.576;2023-08-20T07:37:29;6.63;;;5.07;;
489;SDS011;231;48.120;11.576;2023-08-20T07:39:56;5.20;;;4.90;;
489;SDS011;231;48.120;11.576;2023-08-20T07:42:24;5.47;;;4.80;;
489;SDS011;231;48.120;11.576;2023-08-20T07:44:51;5.60;;;5.37;;
489;SDS011;231;48.120;11.576;2023-08-20T07:47:17;5.20;;;4.90;;
489;SDS011;231;48.120;11.576;2023-08-20T07:49:44;5.33;;;5.03;;
489;SDS011;231;48.120;11.576;2023-08-20T07:52:11;5.50;;;5.20;;
489;SDS011;231;48.120;11.576;2023-08-20T07:54:38;5.50;;;5.20;;
489;SDS011;231;48.120;11.576;2023-08-20T07:57:04;5.37;;;5.07;;
489;SDS011;231;48.120;11.576;2023-08-20T07:59:33;4.90;;;4.60;;
489;SDS011;231;48.120;11.576;2023-08-20T08:01:59;5.70;;;4.83;;
489;SDS011;231;48.120;11.576;2023-08-20T08:04:27;6.30;;;3.60;;
489;SDS011;231;48.120;11.576;2023-08-20T08:06:54;5.50;;;4.60;;
489;SDS011;231;48.120;11.576;2023-08-20T08:09:21;5.63;;;5.33;;
489;SDS011;231;48.120;11.576;2023-08-20T08:11:52;5.23;;;4.90;;
489;SDS011;231;48.120;11.576;2023-08-20T08:14:19;6.73;;;4.90;;
489;SDS011;231;48.120;11.576;2023-08-20T08:16:48;5.40;;;4.77;;
489;SDS011;231;48.120;11.576;2023-08-20T08:19:15;5.03;;;4.73;;
489;SDS011;231;48.120;11.576;2023-08-20T08:24:52;6.30;;;4.97;;
489;SDS011;231;48.120;11.576;2023-08-20T08:27:19;4.13;;;3.90;;
489;SDS011;231;48.120;11.576;2023-08-20T08:29:46;4.70;;;4.40;;
489;SDS011;231;48.120;11.576;2023-08-20T08:32:14;5.30;;;5.00;;
489;SDS011;231;48.120;11.576;2023-08-20T08:34:41;5.17;;;4.83;;
489;SDS011;231;48.120;11.576;2023-08-20T08:37:08;5.07;;;4.77;;
489;SDS011;231;48.120;11.576;2023-08-20T08:39:35;4.97;;;4.67;;
489;SDS011;231;48.120;11.576;2023-08-20T08:42:03;4.87;;;4.57;;
489;SDS011;231;48.120;11.576;2023-08-20T08:44:32;4.57;;;4.27;;
489;SDS011;231;48.120;11.576;2023-08-20T08:46:59;5.10;;;4.80;;
489;SDS011;231;48.120;11.576;2023-08-20T08:49:29;6.20;;;5.00;;
489;SDS011;231;48.120;11.576;2023-08-20T08:51:57;5.80;;;4.40;;
489;SDS011;231;48.120;11.576;2023-08-20T08:54:24;4.60;;;4.30;;
489;SDS011;231;48.120;11.576;2023-08-20T08:56:58;4.90;;;4.60;;
489;SDS011;231;48.120;11.576;2023-08-20T08:59:25;6.97;;;4.60;;
489;SDS011;231;48.120;11.576;2023-08-20T09:01:54;4.53;;;4.23;;
489;SDS011;231;48.120;11.576;2023-08-20T09:04:22;4.70;;;4.40;;
489;SDS011;231;48.120;11.576;2023-08-20T09:06:51;5.30;;;5.00;;
489;SDS011;231;48.120;11.576;2023-08-20T09:09:19;5.03;;;4.73;;
489;SDS011;231;48.120;11.576;2023-08-20T09:11:47;4.93;;;4.63;;
489;SDS011;231;48.120;11.576;2023-08-20T09:14:23;5.13;;;4.83;;
489;SDS011;231;48.120;11.576;2023-08-20T09:17:05;5.17;;;4.77;;
489;SDS011;231;48.120;11.576;2023-08-20T09:19:35;5.10;;;4.80;;
489;SDS011;231;48.120;11.576;2023-08-20T09:25:07;5.67;;;4.93;;
489;SDS011;231;48.120;11.576;2023-08-20T09:27:43;5.13;;;4.83;;
489;SDS011;231;48.120;11.576;2023-08-20T09:30:10;5.47;;;5.17;;
489;SDS011;231;48.120;11.576;2023-08-20T09:32:44;5.07;;;4.73;;
489;SDS011;231;48.120;11.576;2023-08-20T09:35:17;4.47;;;4.17;;
489;SDS011;231;48.120;11.576;2023-08-20T09:37:44;5.77;;;5.50;;
489;SDS011;231;48.120;11.576;2023-08-20T09:40:12;4.80;;;4.50;;
489;SDS011;231;48.120;11.576;2023-08-20T09:42:41;4.70;;;4.40;;
489;SDS011;231;48.120;11.576;2023-08-20T09:45:10;4.60;;;4.30;;
489;SDS011;231;48.120;11.576;2023-08-20T09:47:40;5.13;;;4.83;;
489;SDS011;231;48.120;11.576;2023-08-20T09:50:13;4.70;;;4.40;;
489;SDS011;231;48.120;11.576;2023-08-20T09:52:44;4.40;;;4.10;;
489;SDS011;231;48.120;11.576;2023-08-20T09:55:21;4.90;;;4.60;;
489;SDS011;231;48.120;11.576;2023-08-20T09:57:50;4.67;;;4.37;;
489;SDS011;231;48.120;11.576;2023-08-20T10:00:19;4.80;;;4.50;;
489;SDS011;231;48.120;11.576;2023-08-20T10:02:47;3.97;;;3.80;;
489;SDS011;231;48.120;11.576;2023-08-20T10:05:15;4.67;;;4.27;;
489;SDS011;231;48.120;11.576;2023-08-20T10:07:47;5.00;;;4.70;;
489;SDS011;231;48.120;11.576;2023-08-20T10:13:06;5.10;;;4.80;;
489;SDS011;231;48.120;11.576;2023-08-20T10:15:39;5.83;;;4.47;;
489;SDS011;231;48.120;11.576;2023-08-20T10:18:10;4.63;;;4.33;;
489;SDS011;231;48.120;11.576;2023-08-20T10:20:41;7.57;;;5.33;;
489;SDS011;231;48.120;11.576;2023-08-20T10:23:08;5.00;;;4.47;;
489;SDS011;231;48.120;11.576;2023-08-20T10:25:41;5.23;;;4.93;;
489;SDS011;231;48.120;11.576;2023-08-20T10:28:11;5.10;;;4.80;;
489;SDS011;231;48.120;11.576;2023-08-20T10:33:35;5.13;;;4.60;;
489;SDS011;231;48.120;11.576;2023-08-20T10:36:09;4.57;;;4.27;;
489;SDS011;231;48.120;11.576;2023-08-20T10:38:39;4.57;;;4.27;;
489;SDS011;231;48.120;11.576;2023-08-20T10:41:10;4.53;;;4.20;;
489;SDS011;231;48.120;11.576;2023-08-20T10:43:38;5.57;;;4.40;;
489;SDS011;231;48.120;11.576;2023-08-20T10:46:07;4.57;;;4.27;;
489;SDS011;231;48.120;11.576;2023-08-20T10:48:39;4.60;;;4.30;;
489;SDS011;231;48.120;11.576;2023-08-20T10:51:10;4.43;;;3.97;;
489;SDS011;231;48.120;11.576;2023-08-20T10:53:39;4.60;;;4.30;;
489;SDS011;231;48.120;11.576;2023-08-20T10:56:12;4.80;;;4.50;;
489;SDS011;231;48.120;11.576;2023-08-20T10:58:40;5.50;;;4.57;;
489;SDS011;231;48.120;11.576;2023-08-20T11:01:15;4.87;;;4.57;;
489;SDS011;231;48.120;11.576;2023-08-20T11:03:46;4.70;;;4.40;;
489;SDS011;231;48.120;11.576;2023-08-20T11:06:15;5.60;;;5.30;;
489;SDS011;231;48.120;11.576;2023-08-20T11:08:41;4.60;;;4.30;;
489;SDS011;231;48.120;11.576;2023-08-20T11:11:08;5.30;;;5.00;;
489;SDS011;231;48.120;11.576;2023-08-20T11:13:37;4.13;;;3.90;;
489;SDS011;231;48.120;11.576;2023-08-20T11:16:04;5.83;;;4.47;;
489;SDS011;231;48.120;11.576;2023-08-20T11:18:32;4.60;;;4.30;;
489;SDS011;231;48.120;11.576;2023-08-20T11:21:00;5.13;;;4.17;;
489;SDS011;231;48.120;11.576;2023-08-20T11:23:27;5.00;;;4.70;;
489;SDS011;231;48.120;11.576;2023-08-20T11:25:54;5.90;;;4.67;;
489;SDS011;231;48.120;11.576;2023-08-20T11:28:22;4.80;;;4.50;;
489;SDS011;231;48.120;11.576;2023-08-20T11:30:52;4.30;;;4.00;;
489;SDS011;231;48.120;11.576;2023-08-20T11:33:20;3.90;;;3.70;;
489;SDS011;231;48.120;11.576;2023-08-20T11:35:48;4.63;;;4.33;;
489;SDS011;231;48.120;11.576;2023-08-20T11:38:15;5.00;;;4.70;;
489;SDS011;231;48.120;11.576;2023-08-20T11:40:43;5.67;;;5.03;;
489;SDS011;231;48.120;11.576;2023-08-20T11:43:10;4.67;;;4.37;;
489;SDS011;231;48.120;11.576;2023-08-20T11:45:43;5.03;;;4.73;;
489;SDS011;231;48.120;11.576;2023-08-20T11:48:13;4.80;;;4.50;;
489;SDS011;231;48.120;11.576;2023-08-20T11:50:40;4.70;;;4.40;;
489;SDS011;231;48.120;11.576;2023-08-20T11:53:08;3.90;;;3.70;;
489;SDS011;231;48.120;11.576;2023-08-20T11:55:35;4.90;;;4.60;;
489;SDS011;231;48.120;11.576;2023-08-20T11:58:04;6.37;;;5.40;;
489;SDS011;231;48.120;11.576;2023-08-20T12:00:32;5.30;;;5.00;;
489;SDS011;231;48.120;11.576;2023-08-20T12:02:59;4.63;;;4.33;;
489;SDS011;231;48.120;11.576;2023-08-20T12:05:30;5.17;;;4.87;;
489;SDS011;231;48.120;11.576;2023-08-20T12:07:57;5.20;;;4.90;;
489;SDS011;231;48.120;11.576;2023-08-20T12:10:25;4.57;;;4.27;;
489;SDS011;231;48.120;11.576;2023-08-20T12:12:53;4.70;;;4.40;;
489;SDS011;231;48.120;11.576;2023-08-20T12:15:21;4.67;;;4.37;;
489;SDS011;231;48.120;11.576;2023-08-20T12:17:56;4.90;;;4.60;;
489;SDS011;231;48.120;11.576;2023-08-20T12:20:27;4.03;;;3.83;;
489;SDS011;231;48.120;11.576;2023-08-20T12:22:56;4.10;;;3.90;;
489;SDS011;231;48.120;11.576;2023-08-20T12:25:24;5.50;;;5.20;;
489;SDS011;231;48.120;11.576;2023-08-20T12:27:51;5.10;;;4.80;;
489;SDS011;231;48.120;11.576;2023-08-20T12:30:18;4.53;;;4.23;;
489;SDS011;231;48.120;11.576;2023-08-20T12:32:45;5.87;;;5.57;;
489;SDS011;231;48.120;11.576;2023-08-20T12:35:12;5.10;;;4.80;;
489;SDS011;231;48.120;11.576;2023-08-20T12:37:39;4.03;;;3.83;;
489;SDS011;231;48.120;11.576;2023-08-20T12:40:07;5.33;;;4.80;;
489;SDS011;231;48.120;11.576;2023-08-20T12:42:37;5.50;;;4.27;;
489;SDS011;231;48.120;11.576;2023-08-20T12:45:05;5.40;;;5.10;;
489;SDS011;231;48.120;11.576;2023-08-20T12:47:32;5.47;;;4.37;;
489;SDS011;231;48.120;11.576;2023-08-20T12:49:59;4.70;;;4.40;;
489;SDS011;231;48.120;11.576;2023-08-20T12:52:28;4.47;;;4.17;;
489;SDS011;231;48.120;11.576;2023-08-20T12:54:54;9.47;;;4.80;;
489;SDS011;231;48.120;11.576;2023-08-20T12:57:23;4.93;;;4.63;;
489;SDS011;231;48.120;11.576;2023-08-20T12:59:49;4.60;;;4.30;;
489;SDS011;231;48.120;11.576;2023-08-20T13:02:17;11.33;;;5.80;;
489;SDS011;231;48.120;11.576;2023-08-20T13:04:44;6.73;;;4.63;;
489;SDS011;231;48.120;11.576;2023-08-20T13:07:12;4.77;;;4.47;;
489;SDS011;231;48.120;11.576;2023-08-20T13:09:39;5.63;;;5.33;;
489;SDS011;231;48.120;11.576;2023-08-20T13:12:06;5.13;;;4.73;;
489;SDS011;231;48.120;11.576;2023-08-20T13:14:38;6.93;;;4.40;;
489;SDS011;231;48.120;11.576;2023-08-20T13:17:07;4.73;;;4.43;;
489;SDS011;231;48.120;11.576;2023-08-20T13:19:35;6.37;;;5.27;;
489;SDS011;231;48.120;11.576;2023-08-20T13:22:01;6.20;;;5.63;;
489;SDS011;231;48.120;11.576;2023-08-20T13:24:28;6.00;;;5.70;;
489;SDS011;231;48.120;11.576;2023-08-20T13:26:55;7.37;;;5.00;;
489;SDS011;231;48.120;11.576;2023-08-20T13:29:22;5.53;;;5.23;;
489;SDS011;231;48.120;11.576;2023-08-20T13:31:50;6.00;;;5.70;;
489;SDS011;231;48.120;11.576;2023-08-20T13:34:17;5.50;;;5.20;;
489;SDS011;231;48.120;11.576;2023-08-20T13:36:44;5.27;;;4.97;;
489;SDS011;231;48.120;11.576;2023-08-20T13:39:11;5.73;;;5.43;;
489;SDS011;231;48.120;11.576;2023-08-20T13:41:39;8.17;;;5.77;;
489;SDS011;231;48.120;11.576;2023-08-20T13:44:06;5.17;;;4.83;;
489;SDS011;231;48.120;11.576;2023-08-20T13:46:33;5.50;;;5.20;;
489;SDS011;231;48.120;11.576;2023-08-20T13:49:02;6.53;;;5.10;;
489;SDS011;231;48.120;11.576;2023-08-20T13:51:29;5.67;;;5.37;;
489;SDS011;231;48.120;11.576;2023-08-20T13:53:56;5.70;;;4.83;;
489;SDS011;231;48.120;11.576;2023-08-20T13:56:23;6.20;;;4.97;;
489;SDS011;231;48.120;11.576;2023-08-20T13:58:50;5.60;;;5.00;;
489;SDS011;231;48.120;11.576;2023-08-20T14:01:17;5.73;;;5.43;;
489;SDS011;231;48.120;11.576;2023-08-20T14:03:44;7.07;;;5.87;;
489;SDS011;231;48.120;11.576;2023-08-20T14:06:12;6.97;;;6.57;;
489;SDS011;231;48.120;11.576;2023-08-20T14:08:39;6.03;;;5.73;;
489;SDS011;231;48.120;11.576;2023-08-20T14:11:06;5.50;;;5.23;;
489;SDS011;231;48.120;11.576;2023-08-20T14:13:33;5.03;;;4.73;;
489;SDS011;231;48.120;11.576;2023-08-20T14:16:00;4.47;;;4.17;;
489;SDS011;231;48.120;11.576;2023-08-20T14:18:27;5.47;;;5.17;;
489;SDS011;231;48.120;11.576;2023-08-20T14:20:54;6.53;;;6.13;;
489;SDS011;231;48.120;11.576;2023-08-20T14:23:22;5.57;;;5.27;;
489;SDS011;231;48.120;11.576;2023-08-20T14:25:49;5.50;;;5.20;;
489;SDS011;231;48.120;11.576;2023-08-20T14:28:16;5.50;;;5.20;;
489;SDS011;231;48.120;11.576;2023-08-20T14:30:42;5.17;;;4.87;;
489;SDS011;231;48.120;11.576;2023-08-20T14:33:09;3.97;;;3.77;;
489;SDS011;231;48.120;11.576;2023-08-20T14:35:36;5.30;;;4.40;;
489;SDS011;231;48.120;11.576;2023-08-20T14:38:03;5.47;;;5.17;;
489;SDS011;231;48.120;11.576;2023-08-20T14:40:31;6.43;;;5.37;;
489;SDS011;231;48.120;11.576;2023-08-20T14:42:59;8.63;;;5.20;;
489;SDS011;231;48.120;11.576;2023-08-20T14:45:26;5.73;;;5.43;;
489;SDS011;231;48.120;11.576;2023-08-20T14:47:52;5.20;;;4.90;;
489;SDS011;231;48.120;11.576;2023-08-20T14:50:19;4.87;;;4.57;;
489;SDS011;231;48.120;11.576;2023-08-20T14:52:46;5.30;;;5.00;;
489;SDS011;231;48.120;11.576;2023-08-20T14:55:16;4.80;;;4.50;;
489;SDS011;231;48.120;11.576;2023-08-20T14:57:45;5.07;;;4.77;;
489;SDS011;231;48.120;11.576;2023-08-20T15:00:12;5.77;;;4.97;;
489;SDS011;231;48.120;11.576;2023-08-20T15:02:39;4.80;;;4.50;;
489;SDS011;231;48.120;11.576;2023-08-20T15:05:06;4.90;;;4.60;;
489;SDS011;231;48.120;11.576;2023-08-20T15:07:34;6.17;;;5.87;;
489;SDS011;231;48.120;11.576;2023-08-20T15:10:00;5.90;;;5.60;;
489;SDS011;231;48.120;11.576;2023-08-20T15:12:28;5.23;;;4.93;;
489;SDS011;231;48.120;11.576;2023-08-20T15:14:56;4.37;;;4.07;;
489;SDS011;231;48.120;11.576;2023-08-20T15:17:23;5.10;;;4.80;;
489;SDS011;231;48.120;11.576;2023-08-20T15:19:49;5.07;;;4.77;;
489;SDS011;231;48.120;11.576;2023-08-20T15:22:16;8.53;;;6.23;;
489;SDS011;231;48.120;11.576;2023-08-20T15:24:43;5.43;;;5.13;;
489;SDS011;231;48.120;11.576;2023-08-20T15:27:10;5.10;;;4.80;;
489;SDS011;231;48.120;11.576;2023-08-20T15:29:37;4.80;;;4.50;;
489;SDS011;231;48.120;11.576;2023-08-20T15:32:05;6.10;;;5.77;;
489;SDS011;231;48.120;11.576;2023-08-20T15:34:32;5.13;;;4.83;;
489;SDS011;231;48.120;11.576;2023-08-20T15:36:59;6.13;;;5.10;;
489;SDS011;231;48.120;11.576;2023-08-20T15:39:25;4.60;;;4.30;;
489;SDS011;231;48.120;11.576;2023-08-20T15:41:52;5.17;;;4.87;;
489;SDS011;231;48.120;11.576;2023-08-20T15:44:19;6.70;;;5.43;;
489;SDS011;231;48.120;11.576;2023-08-20T15:46:46;5.23;;;4.93;;
489;SDS011;231;48.120;11.576;2023-08-20T15:49:14;7.37;;;4.90;;
489;SDS011;231;48.120;11.576;2023-08-20T15:51:41;5.47;;;5.17;;
489;SDS011;231;48.120;11.576;2023-08-20T15:54:09;5.00;;;4.70;;